createdAt,value
2022-12-11T00:01:15.919Z,0.24
2022-12-11T00:03:42.738Z,0.25
2022-12-11T00:06:11.818Z,0.28
2022-12-11T00:08:39.144Z,0.30
2022-12-11T00:11:08.876Z,0.29
2022-12-11T00:13:35.644Z,0.32
2022-12-11T00:16:02.080Z,0.33
2022-12-11T00:18:28.483Z,0.34
2022-12-11T00:20:55.072Z,0.34
2022-12-11T00:23:21.624Z,0.35
2022-12-11T00:25:48.201Z,0.35
2022-12-11T00:28:16.847Z,0.34
2022-12-11T00:30:43.380Z,0.34
2022-12-11T00:33:10.750Z,0.34
2022-12-11T00:35:41.843Z,0.36
2022-12-11T00:38:08.711Z,0.35
2022-12-11T00:40:36.824Z,0.33
2022-12-11T00:43:03.996Z,0.33
2022-12-11T00:45:30.548Z,0.34
2022-12-11T00:47:58.109Z,0.32
2022-12-11T00:50:24.667Z,0.34
2022-12-11T00:52:51.169Z,0.35
2022-12-11T00:55:18.348Z,0.37
2022-12-11T00:57:44.739Z,0.34
2022-12-11T01:00:12.650Z,0.38
2022-12-11T01:02:39.207Z,0.38
2022-12-11T01:05:06.233Z,0.37
2022-12-11T01:07:32.611Z,0.39
2022-12-11T01:10:17.715Z,0.41
2022-12-11T01:12:44.129Z,0.42
2022-12-11T01:15:12.251Z,0.41
2022-12-11T01:17:38.971Z,0.41
2022-12-11T01:20:05.816Z,0.38
2022-12-11T01:22:32.343Z,0.41
2022-12-11T01:24:59.227Z,0.40
2022-12-11T01:27:25.975Z,0.43
2022-12-11T01:29:52.546Z,0.42
2022-12-11T01:32:19.047Z,0.42
2022-12-11T01:34:45.778Z,0.44
2022-12-11T01:37:12.216Z,0.44
2022-12-11T01:39:38.849Z,0.44
2022-12-11T01:42:10.227Z,0.43
2022-12-11T01:44:37.328Z,0.45
2022-12-11T01:47:03.788Z,0.44
2022-12-11T01:49:30.301Z,0.46
2022-12-11T01:52:03.295Z,0.45
2022-12-11T01:54:30.519Z,0.45
2022-12-11T01:57:00.670Z,0.44
2022-12-11T01:59:30.993Z,0.42
2022-12-11T02:02:03.361Z,0.41
2022-12-11T02:04:30.864Z,0.44
2022-12-11T02:06:57.461Z,0.44
2022-12-11T02:09:27.106Z,0.45
2022-12-11T02:12:03.164Z,0.45
2022-12-11T02:14:29.583Z,0.48
2022-12-11T02:17:03.842Z,0.47
2022-12-11T02:19:53.022Z,0.51
2022-12-11T02:22:55.304Z,0.53
2022-12-11T02:25:38.064Z,0.53
2022-12-11T02:28:24.028Z,0.52
2022-12-11T02:30:57.096Z,0.52
2022-12-11T02:33:38.987Z,0.53
2022-12-11T02:36:08.034Z,0.56
2022-12-11T02:38:39.156Z,0.56
2022-12-11T02:41:08.555Z,0.55
2022-12-11T02:43:37.574Z,0.57
2022-12-11T02:46:07.484Z,0.57
2022-12-11T02:48:36.345Z,0.57
2022-12-11T02:51:05.754Z,0.56
2022-12-11T02:53:37.545Z,0.57
2022-12-11T02:56:21.046Z,0.61
2022-12-11T02:58:58.651Z,0.61
2022-12-11T03:01:26.793Z,0.63
2022-12-11T03:03:55.475Z,0.65
2022-12-11T03:06:26.365Z,0.64
2022-12-11T03:08:52.907Z,0.64
2022-12-11T03:11:19.308Z,0.67
2022-12-11T03:13:45.842Z,0.68
2022-12-11T03:16:31.238Z,0.69
2022-12-11T03:19:00.654Z,0.69
2022-12-11T03:21:36.024Z,0.68
2022-12-11T03:24:09.052Z,0.69
2022-12-11T03:26:54.507Z,0.69
2022-12-11T03:29:37.775Z,0.70
2022-12-11T03:32:15.374Z,0.70
2022-12-11T03:34:48.491Z,0.72
2022-12-11T03:37:16.818Z,0.72
2022-12-11T03:39:49.242Z,0.71
2022-12-11T03:42:19.143Z,0.70
2022-12-11T03:44:49.534Z,0.70
2022-12-11T03:47:20.572Z,0.67
2022-12-11T03:49:48.683Z,0.65
2022-12-11T03:52:17.185Z,0.66
2022-12-11T03:54:47.484Z,0.67
2022-12-11T03:57:18.011Z,0.64
2022-12-11T03:59:44.657Z,0.64
2022-12-11T04:02:11.184Z,0.60
2022-12-11T04:04:39.079Z,0.64
2022-12-11T04:07:05.711Z,0.63
2022-12-11T04:09:32.409Z,0.64
2022-12-11T04:11:58.831Z,0.64
2022-12-11T04:14:43.801Z,0.66
2022-12-11T04:17:10.318Z,0.67
2022-12-11T04:19:55.269Z,0.66
2022-12-11T04:22:40.615Z,0.65
2022-12-11T04:25:08.406Z,0.64
2022-12-11T04:27:50.106Z,0.63
2022-12-11T04:30:29.313Z,0.63
2022-12-11T04:32:58.983Z,0.62
2022-12-11T04:35:25.415Z,0.60
2022-12-11T04:37:53.047Z,0.63
2022-12-11T04:40:20.312Z,0.62
2022-12-11T04:42:46.968Z,0.62
2022-12-11T04:45:13.772Z,0.62
2022-12-11T04:47:41.501Z,0.63
2022-12-11T04:50:10.487Z,0.62
2022-12-11T04:52:36.988Z,0.62
2022-12-11T04:55:08.164Z,0.62
2022-12-11T04:57:35.168Z,0.61
2022-12-11T05:00:02.237Z,0.61
2022-12-11T05:02:28.751Z,0.61
2022-12-11T05:04:55.208Z,0.62
2022-12-11T05:07:21.639Z,0.62
2022-12-11T05:09:48.110Z,0.64
2022-12-11T05:12:14.645Z,0.63
2022-12-11T05:14:41.083Z,0.65
2022-12-11T05:17:07.470Z,0.63
2022-12-11T05:19:33.911Z,0.60
2022-12-11T05:22:00.278Z,0.61
2022-12-11T05:24:26.740Z,0.57
2022-12-11T05:26:53.152Z,0.60
2022-12-11T05:29:19.590Z,0.59
2022-12-11T05:31:46.139Z,0.58
2022-12-11T05:34:12.724Z,0.58
2022-12-11T05:36:39.330Z,0.56
2022-12-11T05:39:05.779Z,0.55
2022-12-11T05:41:32.836Z,0.55
2022-12-11T05:43:59.574Z,0.57
2022-12-11T05:46:28.673Z,0.55
2022-12-11T05:48:59.961Z,0.54
2022-12-11T05:51:28.792Z,0.52
2022-12-11T05:53:57.034Z,0.54
2022-12-11T05:56:28.536Z,0.52
2022-12-11T05:58:55.855Z,0.50
2022-12-11T06:01:26.247Z,0.51
2022-12-11T06:03:54.136Z,0.55
2022-12-11T06:06:21.269Z,0.54
2022-12-11T06:08:51.128Z,0.52
2022-12-11T06:11:22.424Z,0.54
2022-12-11T06:13:50.765Z,0.54
2022-12-11T06:16:17.335Z,0.55
2022-12-11T06:18:45.091Z,0.55
2022-12-11T06:21:30.698Z,0.55
2022-12-11T06:23:59.303Z,0.57
2022-12-11T06:26:26.696Z,0.55
2022-12-11T06:28:53.262Z,0.54
2022-12-11T06:31:20.956Z,0.56
2022-12-11T06:33:47.824Z,0.55
2022-12-11T06:36:17.315Z,0.54
2022-12-11T06:38:44.251Z,0.54
2022-12-11T06:41:11.466Z,0.53
2022-12-11T06:43:40.158Z,0.53
2022-12-11T06:46:14.928Z,0.53
2022-12-11T06:48:42.506Z,0.53
2022-12-11T06:51:12.346Z,0.50
2022-12-11T06:53:39.061Z,0.52
2022-12-11T06:56:08.223Z,0.48
2022-12-11T06:58:36.203Z,0.48
2022-12-11T07:01:04.611Z,0.44
2022-12-11T07:03:31.173Z,0.45
2022-12-11T07:06:04.632Z,0.44
2022-12-11T07:08:31.981Z,0.43
2022-12-11T07:11:10.392Z,0.42
2022-12-11T07:13:37.235Z,0.41
2022-12-11T07:16:05.732Z,0.40
2022-12-11T07:18:32.710Z,0.39
2022-12-11T07:21:02.605Z,0.43
2022-12-11T07:23:29.391Z,0.45
2022-12-11T07:25:56.400Z,0.45
2022-12-11T07:28:23.081Z,0.43
2022-12-11T07:30:49.712Z,0.42
2022-12-11T07:33:16.133Z,0.42
2022-12-11T07:35:43.626Z,0.42
2022-12-11T07:38:10.090Z,0.41
2022-12-11T07:40:36.857Z,0.41
2022-12-11T07:43:03.596Z,0.39
2022-12-11T07:45:30.146Z,0.40
2022-12-11T07:47:56.635Z,0.39
2022-12-11T07:50:23.180Z,0.38
2022-12-11T07:52:49.696Z,0.41
2022-12-11T07:55:16.232Z,0.39
2022-12-11T07:57:42.656Z,0.42
2022-12-11T08:00:10.621Z,0.39
2022-12-11T08:02:37.741Z,0.37
2022-12-11T08:05:05.148Z,0.36
2022-12-11T08:07:34.608Z,0.37
2022-12-11T08:10:01.194Z,0.32
2022-12-11T08:12:27.572Z,0.32
2022-12-11T08:14:54.203Z,0.33
2022-12-11T08:17:24.502Z,0.31
2022-12-11T08:19:53.876Z,0.30
2022-12-11T08:22:20.319Z,0.33
2022-12-11T08:24:47.241Z,0.31
2022-12-11T08:27:13.760Z,0.31
2022-12-11T08:29:40.477Z,0.32
2022-12-11T08:32:12.104Z,0.32
2022-12-11T08:34:39.004Z,0.28
2022-12-11T08:37:05.462Z,0.31
2022-12-11T08:39:32.081Z,0.31
2022-12-11T08:41:58.866Z,0.32
2022-12-11T08:44:26.827Z,0.32
2022-12-11T08:46:53.235Z,0.30
2022-12-11T08:49:19.690Z,0.28
2022-12-11T08:51:46.085Z,0.27
2022-12-11T08:54:12.576Z,0.27
2022-12-11T08:56:39.348Z,0.29
2022-12-11T08:59:06.307Z,0.25
2022-12-11T09:01:35.150Z,0.27
2022-12-11T09:04:01.762Z,0.30
2022-12-11T09:06:30.366Z,0.29
2022-12-11T09:08:59.644Z,0.25
2022-12-11T09:11:29.222Z,0.29
2022-12-11T09:13:56.003Z,0.30
2022-12-11T09:16:24.984Z,0.33
2022-12-11T09:18:53.553Z,0.37
2022-12-11T09:21:22.951Z,0.45
2022-12-11T09:23:53.325Z,0.51
2022-12-11T09:26:20.138Z,0.55
2022-12-11T09:28:47.430Z,0.59
2022-12-11T09:31:14.119Z,0.64
2022-12-11T09:33:41.004Z,0.68
2022-12-11T09:36:08.264Z,0.72
2022-12-11T09:38:36.627Z,0.77
2022-12-11T09:41:35.544Z,0.79
2022-12-11T09:44:15.204Z,0.85
2022-12-11T09:46:42.460Z,0.86
2022-12-11T09:49:22.779Z,0.86
2022-12-11T09:52:00.310Z,0.88
2022-12-11T09:54:27.111Z,0.95
2022-12-11T09:57:09.086Z,0.99
2022-12-11T10:00:04.489Z,1.01
2022-12-11T10:03:06.915Z,1.06
2022-12-11T10:05:44.356Z,1.10
2022-12-11T10:08:30.808Z,1.15
2022-12-11T10:11:28.051Z,1.23
2022-12-11T10:14:37.631Z,1.24
2022-12-11T10:17:12.355Z,1.29
2022-12-11T10:19:41.412Z,1.34
2022-12-11T10:22:18.946Z,1.37
2022-12-11T10:25:12.609Z,1.39
2022-12-11T10:27:40.599Z,1.44
2022-12-11T10:30:13.084Z,1.47
2022-12-11T10:32:59.969Z,1.49
2022-12-11T10:35:29.094Z,1.53
2022-12-11T10:38:01.502Z,1.51
2022-12-11T10:40:29.322Z,1.49
2022-12-11T10:42:56.095Z,1.50
2022-12-11T10:45:22.519Z,1.51
2022-12-11T10:47:49.100Z,1.55
2022-12-11T10:50:25.153Z,1.54
2022-12-11T10:52:52.662Z,1.49
2022-12-11T10:55:24.502Z,1.52
2022-12-11T10:58:00.963Z,1.56
2022-12-11T11:00:39.191Z,1.62
2022-12-11T11:03:18.924Z,1.64
2022-12-11T11:05:49.402Z,1.60
2022-12-11T11:08:20.064Z,1.60
2022-12-11T11:10:55.075Z,1.63
2022-12-11T11:13:24.357Z,1.67
2022-12-11T11:16:00.546Z,1.69
2022-12-11T11:18:29.414Z,1.71
2022-12-11T11:20:56.209Z,1.76
2022-12-11T11:23:24.661Z,1.82
2022-12-11T11:25:57.566Z,1.84
2022-12-11T11:28:30.807Z,1.82
2022-12-11T11:31:02.339Z,1.81
2022-12-11T11:33:30.831Z,1.83
2022-12-11T11:36:08.149Z,1.85
2022-12-11T11:38:44.627Z,1.86
2022-12-11T11:41:25.820Z,1.90
2022-12-11T11:43:57.699Z,1.90
2022-12-11T11:46:35.103Z,1.92
2022-12-11T11:49:11.922Z,1.90
2022-12-11T11:52:12.340Z,1.92
2022-12-11T11:54:41.724Z,1.96
2022-12-11T11:57:37.504Z,1.95
2022-12-11T12:00:20.674Z,1.95
2022-12-11T12:02:51.158Z,1.96
2022-12-11T12:05:25.812Z,1.94
2022-12-11T12:08:11.541Z,1.91
2022-12-11T12:10:55.777Z,1.91
2022-12-11T12:13:51.453Z,1.89
2022-12-11T12:16:52.372Z,1.85
2022-12-11T12:19:47.783Z,1.85
2022-12-11T12:22:28.023Z,1.86
2022-12-11T12:25:22.338Z,1.89
2022-12-11T12:28:12.298Z,1.92
2022-12-11T12:30:50.927Z,1.95
2022-12-11T12:33:20.270Z,1.92
2022-12-11T12:36:07.074Z,1.89
2022-12-11T12:38:49.591Z,1.88
2022-12-11T12:41:24.859Z,1.87
2022-12-11T12:44:14.708Z,1.84
2022-12-11T12:47:00.609Z,1.83
2022-12-11T12:49:40.806Z,1.84
2022-12-11T12:52:32.317Z,1.82
2022-12-11T12:55:13.931Z,1.85
2022-12-11T12:57:54.975Z,1.77
2022-12-11T13:00:39.023Z,1.74
2022-12-11T13:03:18.397Z,1.72
2022-12-11T13:05:59.152Z,1.70
2022-12-11T13:08:28.735Z,1.71
2022-12-11T13:11:32.784Z,1.69
2022-12-11T13:14:06.636Z,1.68
2022-12-11T13:16:41.684Z,1.68
2022-12-11T13:19:23.288Z,1.73
2022-12-11T13:22:21.513Z,1.74
2022-12-11T13:25:01.787Z,1.68
2022-12-11T13:27:40.134Z,1.67
2022-12-11T13:30:15.870Z,1.65
2022-12-11T13:32:50.004Z,1.63
2022-12-11T13:35:18.116Z,1.62
2022-12-11T13:37:46.722Z,1.63
2022-12-11T13:40:20.871Z,1.62
2022-12-11T13:42:55.287Z,1.63
2022-12-11T13:45:35.321Z,1.64
2022-12-11T13:48:02.223Z,1.65
2022-12-11T13:50:32.172Z,1.64
2022-12-11T13:53:00.832Z,1.64
2022-12-11T13:55:32.776Z,1.62
2022-12-11T13:58:00.136Z,1.59
2022-12-11T14:00:32.627Z,1.56
2022-12-11T14:03:04.749Z,1.55
2022-12-11T14:05:31.526Z,1.52
2022-12-11T14:08:03.007Z,1.50
2022-12-11T14:10:33.058Z,1.48
2022-12-11T14:12:59.741Z,1.47
2022-12-11T14:15:28.146Z,1.49
2022-12-11T14:17:55.818Z,1.47
2022-12-11T14:20:29.014Z,1.46
2022-12-11T14:23:17.877Z,1.46
2022-12-11T14:25:54.136Z,1.46
2022-12-11T14:28:21.526Z,1.42
2022-12-11T14:30:51.860Z,1.42
2022-12-11T14:33:23.003Z,1.41
2022-12-11T14:35:52.520Z,1.40
2022-12-11T14:38:21.584Z,1.38
2022-12-11T14:40:51.912Z,1.37
2022-12-11T14:43:45.806Z,1.35
2022-12-11T14:46:21.798Z,1.28
2022-12-11T14:49:00.456Z,1.28
2022-12-11T14:51:33.868Z,1.24
2022-12-11T14:54:00.945Z,1.24
2022-12-11T14:56:30.219Z,1.20
2022-12-11T14:59:00.684Z,1.22
2022-12-11T15:01:30.335Z,1.20
2022-12-11T15:04:24.579Z,1.18
2022-12-11T15:06:52.074Z,1.19
2022-12-11T15:09:25.471Z,1.18
2022-12-11T15:11:55.131Z,1.19
2022-12-11T15:14:23.837Z,1.17
2022-12-11T15:16:53.490Z,1.18
2022-12-11T15:19:29.172Z,1.17
2022-12-11T15:22:02.235Z,1.16
2022-12-11T15:24:36.406Z,1.16
2022-12-11T15:27:03.000Z,1.16
2022-12-11T15:29:36.794Z,1.17
2022-12-11T15:32:23.503Z,1.16
2022-12-11T15:34:56.359Z,1.15
2022-12-11T15:37:31.733Z,1.13
2022-12-11T15:40:01.468Z,1.12
2022-12-11T15:42:32.284Z,1.09
2022-12-11T15:44:59.833Z,1.09
2022-12-11T15:47:29.197Z,1.08
2022-12-11T15:50:26.045Z,1.06
2022-12-11T15:52:54.862Z,1.04
2022-12-11T15:55:23.199Z,1.06
2022-12-11T15:57:54.432Z,1.06
2022-12-11T16:00:21.753Z,1.06
2022-12-11T16:02:48.404Z,1.06
2022-12-11T16:05:15.480Z,1.05
2022-12-11T16:07:42.169Z,1.04
2022-12-11T16:10:14.284Z,1.03
2022-12-11T16:12:40.762Z,1.00
2022-12-11T16:15:07.748Z,0.99
2022-12-11T16:17:34.259Z,0.98
2022-12-11T16:20:00.737Z,1.00
2022-12-11T16:22:27.369Z,1.00
2022-12-11T16:24:55.014Z,1.00
2022-12-11T16:27:23.360Z,0.99
2022-12-11T16:29:50.787Z,0.99
2022-12-11T16:32:18.561Z,0.98
2022-12-11T16:34:45.228Z,0.95
2022-12-11T16:37:11.663Z,0.94
2022-12-11T16:39:38.588Z,0.95
2022-12-11T16:42:05.932Z,0.94
2022-12-11T16:44:33.655Z,0.94
2022-12-11T16:47:00.219Z,0.95
2022-12-11T16:49:26.820Z,0.95
2022-12-11T16:51:53.211Z,0.94
2022-12-11T16:54:19.596Z,0.90
2022-12-11T16:56:46.187Z,0.92
2022-12-11T16:59:12.987Z,0.91
2022-12-11T17:01:40.041Z,0.94
2022-12-11T17:04:06.994Z,0.92
2022-12-11T17:06:33.587Z,0.92
2022-12-11T17:09:00.568Z,0.91
2022-12-11T17:11:27.186Z,0.94
2022-12-11T17:13:56.375Z,0.92
2022-12-11T17:16:26.028Z,0.92
2022-12-11T17:18:53.353Z,0.92
2022-12-11T17:21:22.306Z,0.93
2022-12-11T17:23:49.425Z,0.91
2022-12-11T17:26:16.820Z,0.89
2022-12-11T17:28:43.611Z,0.89
2022-12-11T17:31:15.066Z,0.90
2022-12-11T17:33:41.669Z,0.89
2022-12-11T17:36:09.011Z,0.90
2022-12-11T17:38:35.775Z,0.90
2022-12-11T17:41:06.530Z,0.90
2022-12-11T17:43:33.297Z,0.92
2022-12-11T17:45:59.901Z,0.88
2022-12-11T17:48:26.445Z,0.86
2022-12-11T17:50:53.163Z,0.86
2022-12-11T17:53:21.445Z,0.86
2022-12-11T17:55:48.855Z,0.85
2022-12-11T17:58:17.780Z,0.84
2022-12-11T18:00:46.371Z,0.85
2022-12-11T18:03:13.335Z,0.83
2022-12-11T18:05:45.021Z,0.82
2022-12-11T18:08:24.549Z,0.81
2022-12-11T18:10:52.369Z,0.81
2022-12-11T18:13:19.294Z,0.82
2022-12-11T18:15:45.909Z,0.82
2022-12-11T18:18:12.525Z,0.82
2022-12-11T18:20:39.872Z,0.82
2022-12-11T18:23:06.820Z,0.83
2022-12-11T18:25:33.279Z,0.83
2022-12-11T18:28:00.350Z,0.82
2022-12-11T18:30:26.852Z,0.84
2022-12-11T18:32:53.336Z,0.80
2022-12-11T18:35:19.902Z,0.79
2022-12-11T18:37:46.310Z,0.79
2022-12-11T18:40:12.865Z,0.81
2022-12-11T18:42:39.364Z,0.81
2022-12-11T18:45:06.945Z,0.76
2022-12-11T18:47:34.014Z,0.75
2022-12-11T18:50:07.208Z,0.74
2022-12-11T18:52:34.725Z,0.72
2022-12-11T18:55:01.419Z,0.71
2022-12-11T18:57:27.939Z,0.69
2022-12-11T18:59:54.601Z,0.66
2022-12-11T19:02:21.952Z,0.66
2022-12-11T19:04:48.535Z,0.64
2022-12-11T19:07:15.358Z,0.64
2022-12-11T19:09:47.613Z,0.61
2022-12-11T19:12:14.703Z,0.59
2022-12-11T19:14:41.526Z,0.60
2022-12-11T19:17:07.988Z,0.57
2022-12-11T19:19:34.605Z,0.55
2022-12-11T19:22:01.075Z,0.59
2022-12-11T19:24:27.829Z,0.55
2022-12-11T19:26:54.405Z,0.52
2022-12-11T19:29:26.986Z,0.51
2022-12-11T19:31:55.826Z,0.47
2022-12-11T19:34:22.830Z,0.43
2022-12-11T19:36:50.293Z,0.43
2022-12-11T19:39:17.188Z,0.44
2022-12-11T19:41:43.794Z,0.43
2022-12-11T19:44:10.748Z,0.45
2022-12-11T19:46:38.104Z,0.38
2022-12-11T19:49:05.466Z,0.44
2022-12-11T19:51:38.662Z,0.44
2022-12-11T19:54:08.192Z,0.42
2022-12-11T19:56:36.076Z,0.42
2022-12-11T19:59:04.395Z,0.41
2022-12-11T20:01:32.345Z,0.42
2022-12-11T20:04:01.469Z,0.41
2022-12-11T20:06:29.515Z,0.39
2022-12-11T20:08:56.173Z,0.39
2022-12-11T20:11:22.839Z,0.39
2022-12-11T20:13:50.659Z,0.38
2022-12-11T20:16:25.093Z,0.36
2022-12-11T20:19:05.158Z,0.36
2022-12-11T20:21:31.666Z,0.35
2022-12-11T20:23:58.157Z,0.34
2022-12-11T20:26:25.487Z,0.33
2022-12-11T20:28:52.819Z,0.35
2022-12-11T20:31:22.833Z,0.33
2022-12-11T20:33:49.963Z,0.33
2022-12-11T20:36:18.568Z,0.35
2022-12-11T20:38:45.210Z,0.34
2022-12-11T20:41:14.107Z,0.34
2022-12-11T20:43:41.039Z,0.33
2022-12-11T20:46:09.781Z,0.36
2022-12-11T20:48:38.003Z,0.36
2022-12-11T20:51:07.108Z,0.34
2022-12-11T20:53:34.894Z,0.33
2022-12-11T20:56:01.880Z,0.31
2022-12-11T20:58:28.430Z,0.29
2022-12-11T21:00:55.037Z,0.33
2022-12-11T21:03:21.601Z,0.32
2022-12-11T21:05:48.031Z,0.32
2022-12-11T21:08:14.664Z,0.31
2022-12-11T21:10:43.487Z,0.32
2022-12-11T21:13:09.983Z,0.28
2022-12-11T21:15:37.257Z,0.28
2022-12-11T21:18:03.789Z,0.29
2022-12-11T21:20:30.432Z,0.31
2022-12-11T21:22:57.597Z,0.30
2022-12-11T21:25:25.272Z,0.29
2022-12-11T21:27:51.983Z,0.28
2022-12-11T21:30:18.967Z,0.26
2022-12-11T21:32:46.109Z,0.26
2022-12-11T21:35:12.919Z,0.24
2022-12-11T21:37:41.730Z,0.28
2022-12-11T21:40:09.310Z,0.30
2022-12-11T21:42:36.290Z,0.30
2022-12-11T21:47:50.128Z,0.29
2022-12-11T21:50:17.127Z,0.29
2022-12-11T21:52:43.675Z,0.29
2022-12-11T21:55:12.336Z,0.28
2022-12-11T21:57:39.084Z,0.30
2022-12-11T22:00:06.565Z,0.31
2022-12-11T22:02:37.485Z,0.29
2022-12-11T22:05:07.889Z,0.30
2022-12-11T22:07:34.432Z,0.28
2022-12-11T22:10:00.962Z,0.29
2022-12-11T22:12:28.446Z,0.28
2022-12-11T22:14:55.317Z,0.30
2022-12-11T22:17:22.161Z,0.25
2022-12-11T22:19:49.000Z,0.27
2022-12-11T22:22:15.545Z,0.26
2022-12-11T22:24:42.127Z,0.27
2022-12-11T22:27:08.661Z,0.29
2022-12-11T22:29:35.550Z,0.26
2022-12-11T22:32:02.078Z,0.27
2022-12-11T22:34:28.568Z,0.25
2022-12-11T22:36:56.243Z,0.25
2022-12-11T22:39:24.388Z,0.25
2022-12-11T22:41:50.953Z,0.28
2022-12-11T22:44:19.761Z,0.24
2022-12-11T22:46:50.018Z,0.23
2022-12-11T22:49:17.456Z,0.25
2022-12-11T22:51:44.026Z,0.26
2022-12-11T22:54:10.598Z,0.25
2022-12-11T22:56:37.121Z,0.27
2022-12-11T22:59:03.715Z,0.26
2022-12-11T23:01:30.250Z,0.25
2022-12-11T23:03:56.743Z,0.25
2022-12-11T23:06:24.956Z,0.25
2022-12-11T23:08:55.036Z,0.26
2022-12-11T23:11:25.203Z,0.25
2022-12-11T23:13:52.656Z,0.23
2022-12-11T23:16:19.635Z,0.25
2022-12-11T23:18:46.200Z,0.22
2022-12-11T23:21:13.168Z,0.24
2022-12-11T23:23:40.460Z,0.25
2022-12-11T23:26:08.608Z,0.24
2022-12-11T23:28:35.014Z,0.25
2022-12-11T23:31:01.939Z,0.25
2022-12-11T23:33:28.823Z,0.23
2022-12-11T23:35:55.524Z,0.19
2022-12-11T23:38:22.132Z,0.21
2022-12-11T23:40:48.584Z,0.21
2022-12-11T23:43:15.026Z,0.21
2022-12-11T23:45:44.712Z,0.23
2022-12-11T23:48:12.669Z,0.25
2022-12-11T23:50:40.764Z,0.21
2022-12-11T23:53:07.307Z,0.19
2022-12-11T23:55:34.071Z,0.18
2022-12-11T23:58:00.964Z,0.19
